sensor_id;sensor_type;location;lat;lon;timestamp;pressure;altitude;pressure_sealevel;temperature;humidity
71917;BME280;59793;46.506;6.674;2024-02-23T00:01:48;95836.34;;;6.47;80.94
71917;BME280;59793;46.506;6.674;2024-02-23T00:04:14;95819.75;;;6.40;81.12
71917;BME280;59793;46.506;6.674;2024-02-23T00:06:39;95792.06;;;6.19;81.01
71917;BME280;59793;46.506;6.674;2024-02-23T00:09:04;95829.25;;;6.48;82.49
71917;BME280;59793;46.506;6.674;2024-02-23T00:11:30;95802.38;;;6.32;82.28
71917;BME280;59793;46.506;6.674;2024-02-23T00:13:57;95796.94;;;6.21;82.64
71917;BME280;59793;46.506;6.674;2024-02-23T00:16:22;95821.38;;;6.29;82.11
71917;BME280;59793;46.506;6.674;2024-02-23T00:18:47;95834.72;;;6.43;81.38
71917;BME280;59793;46.506;6.674;2024-02-23T00:21:13;95836.53;;;6.39;81.84
71917;BME280;59793;46.506;6.674;2024-02-23T00:23:38;95809.47;;;6.31;81.32
71917;BME280;59793;46.506;6.674;2024-02-23T00:26:03;95841.00;;;6.38;81.71
71917;BME280;59793;46.506;6.674;2024-02-23T00:28:32;95798.53;;;6.26;80.75
71917;BME280;59793;46.506;6.674;2024-02-23T00:30:57;95814.50;;;6.59;80.79
71917;BME280;59793;46.506;6.674;2024-02-23T00:33:23;95818.63;;;6.60;80.24
71917;BME280;59793;46.506;6.674;2024-02-23T00:35:48;95805.75;;;6.71;79.48
71917;BME280;59793;46.506;6.674;2024-02-23T00:38:15;95789.44;;;6.78;79.28
71917;BME280;59793;46.506;6.674;2024-02-23T00:40:40;95803.34;;;6.82;79.45
71917;BME280;59793;46.506;6.674;2024-02-23T00:43:05;95792.09;;;6.81;78.88
71917;BME280;59793;46.506;6.674;2024-02-23T00:45:31;95816.56;;;6.89;78.89
71917;BME280;59793;46.506;6.674;2024-02-23T00:47:56;95771.72;;;6.71;78.32
71917;BME280;59793;46.506;6.674;2024-02-23T00:50:26;95811.19;;;7.01;77.76
71917;BME280;59793;46.506;6.674;2024-02-23T00:52:52;95814.09;;;7.19;77.89
71917;BME280;59793;46.506;6.674;2024-02-23T00:55:19;95808.56;;;7.24;78.02
71917;BME280;59793;46.506;6.674;2024-02-23T00:57:45;95797.84;;;7.10;78.56
71917;BME280;59793;46.506;6.674;2024-02-23T01:00:11;95794.84;;;7.08;80.18
71917;BME280;59793;46.506;6.674;2024-02-23T01:02:38;95795.94;;;7.07;80.37
71917;BME280;59793;46.506;6.674;2024-02-23T01:05:04;95781.31;;;7.06;80.55
71917;BME280;59793;46.506;6.674;2024-02-23T01:07:29;95760.75;;;6.85;80.28
71917;BME280;59793;46.506;6.674;2024-02-23T01:09:55;95806.75;;;7.05;80.67
71917;BME280;59793;46.506;6.674;2024-02-23T01:12:20;95753.91;;;6.77;80.61
71917;BME280;59793;46.506;6.674;2024-02-23T01:14:45;95791.34;;;6.81;80.53
71917;BME280;59793;46.506;6.674;2024-02-23T01:17:13;95805.75;;;6.71;81.39
71917;BME280;59793;46.506;6.674;2024-02-23T01:19:41;95776.56;;;6.30;82.35
71917;BME280;59793;46.506;6.674;2024-02-23T01:22:06;95799.69;;;6.28;82.85
71917;BME280;59793;46.506;6.674;2024-02-23T01:24:31;95806.19;;;5.99;81.61
71917;BME280;59793;46.506;6.674;2024-02-23T01:26:58;95804.69;;;5.98;81.62
71917;BME280;59793;46.506;6.674;2024-02-23T01:29:25;95819.34;;;5.87;81.72
71917;BME280;59793;46.506;6.674;2024-02-23T01:31:51;95825.09;;;5.77;79.94
71917;BME280;59793;46.506;6.674;2024-02-23T01:34:16;95807.47;;;5.73;81.30
71917;BME280;59793;46.506;6.674;2024-02-23T01:36:42;95798.38;;;5.67;81.55
71917;BME280;59793;46.506;6.674;2024-02-23T01:39:07;95790.97;;;5.69;81.01
71917;BME280;59793;46.506;6.674;2024-02-23T01:41:32;95800.22;;;5.67;80.65
71917;BME280;59793;46.506;6.674;2024-02-23T01:43:58;95797.63;;;5.51;77.85
71917;BME280;59793;46.506;6.674;2024-02-23T01:46:23;95771.31;;;5.44;79.10
71917;BME280;59793;46.506;6.674;2024-02-23T01:48:49;95787.91;;;5.67;78.69
71917;BME280;59793;46.506;6.674;2024-02-23T01:51:14;95786.41;;;5.66;77.59
71917;BME280;59793;46.506;6.674;2024-02-23T01:53:40;95766.41;;;5.74;77.11
71917;BME280;59793;46.506;6.674;2024-02-23T01:56:06;95772.91;;;5.80;77.94
71917;BME280;59793;46.506;6.674;2024-02-23T01:58:33;95772.63;;;5.85;75.58
71917;BME280;59793;46.506;6.674;2024-02-23T02:01:00;95745.44;;;5.70;74.51
71917;BME280;59793;46.506;6.674;2024-02-23T02:03:26;95780.03;;;5.99;73.76
71917;BME280;59793;46.506;6.674;2024-02-23T02:05:52;95774.38;;;5.97;73.84
71917;BME280;59793;46.506;6.674;2024-02-23T02:08:18;95750.63;;;5.86;74.00
71917;BME280;59793;46.506;6.674;2024-02-23T02:10:44;95744.63;;;5.86;74.75
71917;BME280;59793;46.506;6.674;2024-02-23T02:13:10;95742.97;;;5.78;74.62
71917;BME280;59793;46.506;6.674;2024-02-23T02:15:35;95741.63;;;5.84;75.17
71917;BME280;59793;46.506;6.674;2024-02-23T02:18:01;95729.91;;;5.78;75.21
71917;BME280;59793;46.506;6.674;2024-02-23T02:20:27;95754.59;;;5.96;75.43
71917;BME280;59793;46.506;6.674;2024-02-23T02:22:53;95728.44;;;5.96;75.59
71917;BME280;59793;46.506;6.674;2024-02-23T02:25:18;95727.22;;;6.09;74.94
71917;BME280;59793;46.506;6.674;2024-02-23T02:27:44;95701.91;;;5.94;76.66
71917;BME280;59793;46.506;6.674;2024-02-23T02:30:11;95689.41;;;5.87;76.30
71917;BME280;59793;46.506;6.674;2024-02-23T02:32:37;95731.00;;;6.31;76.65
71917;BME280;59793;46.506;6.674;2024-02-23T02:35:02;95723.44;;;6.45;70.59
71917;BME280;59793;46.506;6.674;2024-02-23T02:37:28;95736.19;;;6.70;70.48
71917;BME280;59793;46.506;6.674;2024-02-23T02:39:54;95737.13;;;6.81;68.51
71917;BME280;59793;46.506;6.674;2024-02-23T02:42:19;95716.00;;;6.90;70.56
71917;BME280;59793;46.506;6.674;2024-02-23T02:44:44;95728.78;;;6.95;73.10
71917;BME280;59793;46.506;6.674;2024-02-23T02:47:09;95715.13;;;6.82;72.81
71917;BME280;59793;46.506;6.674;2024-02-23T02:49:35;95716.00;;;6.90;72.71
71917;BME280;59793;46.506;6.674;2024-02-23T02:52:00;95706.22;;;6.87;69.32
71917;BME280;59793;46.506;6.674;2024-02-23T02:54:25;95702.47;;;6.88;65.37
71917;BME280;59793;46.506;6.674;2024-02-23T02:56:51;95691.25;;;6.87;65.87
71917;BME280;59793;46.506;6.674;2024-02-23T02:59:19;95645.06;;;6.53;67.57
71917;BME280;59793;46.506;6.674;2024-02-23T03:01:45;95690.50;;;6.87;69.32
71917;BME280;59793;46.506;6.674;2024-02-23T03:04:12;95689.31;;;6.84;72.15
71917;BME280;59793;46.506;6.674;2024-02-23T03:06:37;95685.31;;;6.90;73.45
71917;BME280;59793;46.506;6.674;2024-02-23T03:09:02;95670.00;;;6.92;74.40
71917;BME280;59793;46.506;6.674;2024-02-23T03:11:28;95680.09;;;6.90;74.27
71917;BME280;59793;46.506;6.674;2024-02-23T03:13:53;95650.72;;;6.78;74.37
71917;BME280;59793;46.506;6.674;2024-02-23T03:16:20;95670.25;;;6.84;75.25
71917;BME280;59793;46.506;6.674;2024-02-23T03:18:46;95672.56;;;6.89;74.98
71917;BME280;59793;46.506;6.674;2024-02-23T03:21:12;95646.16;;;6.75;76.05
71917;BME280;59793;46.506;6.674;2024-02-23T03:23:39;95650.47;;;6.63;75.93
71917;BME280;59793;46.506;6.674;2024-02-23T03:26:06;95687.78;;;6.80;75.98
71917;BME280;59793;46.506;6.674;2024-02-23T03:28:32;95664.09;;;6.73;76.00
71917;BME280;59793;46.506;6.674;2024-02-23T03:30:58;95672.69;;;6.73;75.59
71917;BME280;59793;46.506;6.674;2024-02-23T03:33:23;95658.44;;;6.70;72.37
71917;BME280;59793;46.506;6.674;2024-02-23T03:35:48;95661.94;;;6.78;72.69
71917;BME280;59793;46.506;6.674;2024-02-23T03:38:13;95662.59;;;6.72;72.32
71917;BME280;59793;46.506;6.674;2024-02-23T03:40:39;95658.88;;;6.73;70.58
71917;BME280;59793;46.506;6.674;2024-02-23T03:43:04;95652.94;;;6.76;71.16
71917;BME280;59793;46.506;6.674;2024-02-23T03:45:31;95640.81;;;6.67;72.31
71917;BME280;59793;46.506;6.674;2024-02-23T03:47:56;95637.16;;;6.72;73.03
71917;BME280;59793;46.506;6.674;2024-02-23T03:50:21;95629.59;;;6.67;72.87
71917;BME280;59793;46.506;6.674;2024-02-23T03:52:47;95635.53;;;6.64;73.41
71917;BME280;59793;46.506;6.674;2024-02-23T03:55:12;95604.47;;;6.39;73.81
71917;BME280;59793;46.506;6.674;2024-02-23T03:57:37;95629.38;;;6.53;72.09
71917;BME280;59793;46.506;6.674;2024-02-23T04:00:03;95643.63;;;6.55;71.63
71917;BME280;59793;46.506;6.674;2024-02-23T04:02:29;95642.94;;;6.58;71.58
71917;BME280;59793;46.506;6.674;2024-02-23T04:04:54;95640.69;;;6.60;73.22
71917;BME280;59793;46.506;6.674;2024-02-23T04:07:20;95636.81;;;6.51;73.34
71917;BME280;59793;46.506;6.674;2024-02-23T04:09:45;95625.47;;;6.43;73.39
71917;BME280;59793;46.506;6.674;2024-02-23T04:12:17;95640.47;;;6.46;74.30
71917;BME280;59793;46.506;6.674;2024-02-23T04:14:43;95642.75;;;6.47;74.84
71917;BME280;59793;46.506;6.674;2024-02-23T04:17:08;95621.09;;;6.28;75.52
71917;BME280;59793;46.506;6.674;2024-02-23T04:19:34;95635.63;;;6.25;75.93
71917;BME280;59793;46.506;6.674;2024-02-23T04:22:00;95636.16;;;6.11;75.59
71917;BME280;59793;46.506;6.674;2024-02-23T04:24:25;95638.59;;;6.04;75.33
71917;BME280;59793;46.506;6.674;2024-02-23T04:26:51;95637.66;;;6.12;75.35
71917;BME280;59793;46.506;6.674;2024-02-23T04:29:16;95626.56;;;5.99;75.06
71917;BME280;59793;46.506;6.674;2024-02-23T04:31:42;95641.63;;;5.87;75.13
71917;BME280;59793;46.506;6.674;2024-02-23T04:34:07;95633.91;;;5.74;74.46
71917;BME280;59793;46.506;6.674;2024-02-23T04:36:32;95628.03;;;5.62;74.02
71917;BME280;59793;46.506;6.674;2024-02-23T04:38:58;95638.72;;;5.53;74.77
71917;BME280;59793;46.506;6.674;2024-02-23T04:41:23;95637.81;;;5.45;76.07
71917;BME280;59793;46.506;6.674;2024-02-23T04:43:50;95631.47;;;5.27;77.99
71917;BME280;59793;46.506;6.674;2024-02-23T04:46:15;95631.81;;;5.10;79.44
71917;BME280;59793;46.506;6.674;2024-02-23T04:48:41;95635.19;;;4.94;79.58
71917;BME280;59793;46.506;6.674;2024-02-23T04:51:07;95631.81;;;4.94;79.98
71917;BME280;59793;46.506;6.674;2024-02-23T04:53:37;95628.16;;;4.95;77.91
71917;BME280;59793;46.506;6.674;2024-02-23T04:56:04;95604.16;;;4.73;77.87
71917;BME280;59793;46.506;6.674;2024-02-23T04:58:29;95622.34;;;4.86;77.88
71917;BME280;59793;46.506;6.674;2024-02-23T05:00:54;95610.31;;;4.81;78.06
71917;BME280;59793;46.506;6.674;2024-02-23T05:03:20;95603.47;;;4.76;75.63
71917;BME280;59793;46.506;6.674;2024-02-23T05:05:46;95596.59;;;4.68;75.60
71917;BME280;59793;46.506;6.674;2024-02-23T05:08:14;95591.28;;;4.65;76.25
71917;BME280;59793;46.506;6.674;2024-02-23T05:10:39;95555.13;;;4.31;76.20
71917;BME280;59793;46.506;6.674;2024-02-23T05:13:04;95548.47;;;4.34;75.88
71917;BME280;59793;46.506;6.674;2024-02-23T05:15:30;95509.88;;;4.08;76.21
71917;BME280;59793;46.506;6.674;2024-02-23T05:17:55;95511.31;;;4.05;75.69
71917;BME280;59793;46.506;6.674;2024-02-23T05:20:20;95605.75;;;4.78;74.70
71917;BME280;59793;46.506;6.674;2024-02-23T05:22:47;95507.53;;;4.19;74.56
71917;BME280;59793;46.506;6.674;2024-02-23T05:25:13;95562.09;;;4.59;74.89
71917;BME280;59793;46.506;6.674;2024-02-23T05:27:39;95594.75;;;4.85;74.71
71917;BME280;59793;46.506;6.674;2024-02-23T05:30:05;95594.47;;;4.90;74.21
71917;BME280;59793;46.506;6.674;2024-02-23T05:32:31;95594.47;;;4.90;74.83
71917;BME280;59793;46.506;6.674;2024-02-23T05:34:57;95605.56;;;4.87;75.00
71917;BME280;59793;46.506;6.674;2024-02-23T05:37:22;95608.19;;;4.87;74.46
71917;BME280;59793;46.506;6.674;2024-02-23T05:39:47;95605.16;;;4.85;74.55
71917;BME280;59793;46.506;6.674;2024-02-23T05:42:13;95610.38;;;4.85;74.63
71917;BME280;59793;46.506;6.674;2024-02-23T05:44:38;95537.72;;;4.36;74.75
71917;BME280;59793;46.506;6.674;2024-02-23T05:47:04;95595.09;;;4.67;75.82
71917;BME280;59793;46.506;6.674;2024-02-23T05:49:30;95564.38;;;4.45;76.05
71917;BME280;59793;46.506;6.674;2024-02-23T05:51:55;95574.56;;;4.50;76.49
71917;BME280;59793;46.506;6.674;2024-02-23T05:54:20;95579.78;;;4.50;76.59
71917;BME280;59793;46.506;6.674;2024-02-23T05:56:46;95603.59;;;4.64;76.10
71917;BME280;59793;46.506;6.674;2024-02-23T05:59:11;95539.25;;;4.21;76.91
71917;BME280;59793;46.506;6.674;2024-02-23T06:01:37;95552.75;;;4.26;77.01
71917;BME280;59793;46.506;6.674;2024-02-23T06:04:03;95601.81;;;4.68;76.85
71917;BME280;59793;46.506;6.674;2024-02-23T06:06:28;95606.50;;;4.63;77.52
71917;BME280;59793;46.506;6.674;2024-02-23T06:08:54;95602.81;;;4.64;77.49
71917;BME280;59793;46.506;6.674;2024-02-23T06:11:19;95582.13;;;4.55;77.33
71917;BME280;59793;46.506;6.674;2024-02-23T06:13:44;95547.72;;;4.34;77.65
71917;BME280;59793;46.506;6.674;2024-02-23T06:16:11;95596.59;;;4.68;77.38
71917;BME280;59793;46.506;6.674;2024-02-23T06:18:37;95589.78;;;4.64;77.40
71917;BME280;59793;46.506;6.674;2024-02-23T06:21:15;95552.25;;;4.37;77.27
71917;BME280;59793;46.506;6.674;2024-02-23T06:23:41;95591.72;;;4.51;77.38
71917;BME280;59793;46.506;6.674;2024-02-23T06:26:06;95599.31;;;4.56;78.03
71917;BME280;59793;46.506;6.674;2024-02-23T06:28:32;95618.13;;;4.65;78.45
71917;BME280;59793;46.506;6.674;2024-02-23T06:30:58;95613.00;;;4.69;78.69
71917;BME280;59793;46.506;6.674;2024-02-23T06:33:23;95597.94;;;4.62;78.63
71917;BME280;59793;46.506;6.674;2024-02-23T06:35:48;95591.97;;;4.62;78.34
71917;BME280;59793;46.506;6.674;2024-02-23T06:38:14;95607.09;;;4.72;78.84
71917;BME280;59793;46.506;6.674;2024-02-23T06:40:40;95607.63;;;4.77;78.62
71917;BME280;59793;46.506;6.674;2024-02-23T06:43:05;95597.50;;;4.76;78.16
71917;BME280;59793;46.506;6.674;2024-02-23T06:45:30;95597.19;;;4.77;78.06
71917;BME280;59793;46.506;6.674;2024-02-23T06:47:56;95614.16;;;4.87;78.61
71917;BME280;59793;46.506;6.674;2024-02-23T06:50:21;95589.44;;;4.81;78.55
71917;BME280;59793;46.506;6.674;2024-02-23T06:52:47;95599.38;;;4.75;78.95
71917;BME280;59793;46.506;6.674;2024-02-23T06:55:14;95616.44;;;4.89;78.93
71917;BME280;59793;46.506;6.674;2024-02-23T06:57:40;95577.91;;;4.66;78.77
71917;BME280;59793;46.506;6.674;2024-02-23T07:00:06;95604.22;;;4.93;78.19
71917;BME280;59793;46.506;6.674;2024-02-23T07:02:32;95625.63;;;4.98;78.91
71917;BME280;59793;46.506;6.674;2024-02-23T07:05:01;95608.94;;;4.87;78.80
71917;BME280;59793;46.506;6.674;2024-02-23T07:07:32;95557.66;;;4.60;78.87
71917;BME280;59793;46.506;6.674;2024-02-23T07:10:01;95617.44;;;5.00;79.03
71917;BME280;59793;46.506;6.674;2024-02-23T07:12:26;95585.13;;;4.89;79.26
71917;BME280;59793;46.506;6.674;2024-02-23T07:14:53;95622.38;;;5.21;78.88
71917;BME280;59793;46.506;6.674;2024-02-23T07:17:19;95612.00;;;5.24;79.01
71917;BME280;59793;46.506;6.674;2024-02-23T07:19:45;95621.50;;;5.33;78.88
71917;BME280;59793;46.506;6.674;2024-02-23T07:22:11;95522.97;;;4.59;79.03
71917;BME280;59793;46.506;6.674;2024-02-23T07:24:41;95571.25;;;4.85;79.53
71917;BME280;59793;46.506;6.674;2024-02-23T07:27:07;95541.91;;;4.72;80.10
71917;BME280;59793;46.506;6.674;2024-02-23T07:29:32;95608.97;;;5.22;80.17
71917;BME280;59793;46.506;6.674;2024-02-23T07:31:58;95610.63;;;5.31;79.79
71917;BME280;59793;46.506;6.674;2024-02-23T07:34:23;95588.94;;;5.26;79.59
71917;BME280;59793;46.506;6.674;2024-02-23T07:36:52;95533.16;;;4.99;79.82
71917;BME280;59793;46.506;6.674;2024-02-23T07:39:17;95548.09;;;5.18;79.24
71917;BME280;59793;46.506;6.674;2024-02-23T07:41:43;95637.91;;;6.07;79.05
71917;BME280;59793;46.506;6.674;2024-02-23T07:44:09;95554.63;;;5.67;78.62
71917;BME280;59793;46.506;6.674;2024-02-23T07:46:35;95645.69;;;6.46;78.05
71917;BME280;59793;46.506;6.674;2024-02-23T07:49:00;95644.16;;;6.64;77.91
71917;BME280;59793;46.506;6.674;2024-02-23T07:51:26;95642.16;;;6.81;77.48
71917;BME280;59793;46.506;6.674;2024-02-23T07:53:51;95611.09;;;6.79;77.17
71917;BME280;59793;46.506;6.674;2024-02-23T07:56:17;95592.59;;;6.91;75.58
71917;BME280;59793;46.506;6.674;2024-02-23T07:58:43;95585.84;;;6.90;75.14
71917;BME280;59793;46.506;6.674;2024-02-23T08:01:09;95646.84;;;6.94;74.05
71917;BME280;59793;46.506;6.674;2024-02-23T08:03:38;95605.41;;;6.74;73.60
71917;BME280;59793;46.506;6.674;2024-02-23T08:06:03;95566.47;;;6.45;74.60
71917;BME280;59793;46.506;6.674;2024-02-23T08:08:29;95636.59;;;7.09;73.22
71917;BME280;59793;46.506;6.674;2024-02-23T08:10:57;95601.81;;;7.08;73.29
71917;BME280;59793;46.506;6.674;2024-02-23T08:13:23;95545.00;;;6.59;72.12
71917;BME280;59793;46.506;6.674;2024-02-23T08:15:50;95522.72;;;6.69;72.51
71917;BME280;59793;46.506;6.674;2024-02-23T08:18:15;95537.66;;;6.68;71.89
71917;BME280;59793;46.506;6.674;2024-02-23T08:20:41;95526.50;;;6.72;71.59
71917;BME280;59793;46.506;6.674;2024-02-23T08:23:06;95516.78;;;6.72;71.19
71917;BME280;59793;46.506;6.674;2024-02-23T08:25:31;95542.28;;;7.05;71.63
71917;BME280;59793;46.506;6.674;2024-02-23T08:27:57;95639.31;;;7.42;70.43
71917;BME280;59793;46.506;6.674;2024-02-23T08:30:24;95636.56;;;7.32;70.77
71917;BME280;59793;46.506;6.674;2024-02-23T08:32:50;95605.31;;;7.19;70.66
71917;BME280;59793;46.506;6.674;2024-02-23T08:35:17;95516.44;;;6.47;71.32
71917;BME280;59793;46.506;6.674;2024-02-23T08:37:42;95602.13;;;7.03;72.08
71917;BME280;59793;46.506;6.674;2024-02-23T08:40:08;95637.13;;;7.18;71.05
71917;BME280;59793;46.506;6.674;2024-02-23T08:42:34;95612.38;;;7.15;71.32
71917;BME280;59793;46.506;6.674;2024-02-23T08:44:59;95532.81;;;6.70;72.49
71917;BME280;59793;46.506;6.674;2024-02-23T08:47:26;95608.06;;;7.00;73.86
71917;BME280;59793;46.506;6.674;2024-02-23T08:49:57;95585.38;;;6.85;74.62
71917;BME280;59793;46.506;6.674;2024-02-23T08:52:22;95525.56;;;6.60;73.95
71917;BME280;59793;46.506;6.674;2024-02-23T08:54:50;95603.41;;;7.43;73.44
71917;BME280;59793;46.506;6.674;2024-02-23T08:57:16;95594.03;;;7.42;73.09
71917;BME280;59793;46.506;6.674;2024-02-23T08:59:45;95549.53;;;7.15;71.94
71917;BME280;59793;46.506;6.674;2024-02-23T09:02:12;95604.13;;;7.74;71.94
71917;BME280;59793;46.506;6.674;2024-02-23T09:04:38;95598.84;;;7.70;71.08
71917;BME280;59793;46.506;6.674;2024-02-23T09:07:03;95556.94;;;7.40;71.56
71917;BME280;59793;46.506;6.674;2024-02-23T09:09:31;95598.78;;;7.66;72.28
71917;BME280;59793;46.506;6.674;2024-02-23T09:12:00;95545.34;;;7.41;72.16
71917;BME280;59793;46.506;6.674;2024-02-23T09:14:25;95603.50;;;7.84;71.95
71917;BME280;59793;46.506;6.674;2024-02-23T09:16:51;95557.19;;;7.31;71.07
71917;BME280;59793;46.506;6.674;2024-02-23T09:19:18;95514.78;;;6.92;71.04
71917;BME280;59793;46.506;6.674;2024-02-23T09:21:44;95589.97;;;7.48;70.49
71917;BME280;59793;46.506;6.674;2024-02-23T09:24:10;95585.75;;;7.40;71.34
71917;BME280;59793;46.506;6.674;2024-02-23T09:26:36;95552.75;;;7.05;71.83
71917;BME280;59793;46.506;6.674;2024-02-23T09:29:02;95607.72;;;7.62;70.30
71917;BME280;59793;46.506;6.674;2024-02-23T09:31:27;95566.84;;;7.24;70.25
71917;BME280;59793;46.506;6.674;2024-02-23T09:33:57;95590.88;;;7.63;70.70
71917;BME280;59793;46.506;6.674;2024-02-23T09:36:23;95599.03;;;7.84;69.38
71917;BME280;59793;46.506;6.674;2024-02-23T09:38:51;95532.63;;;7.77;69.45
71917;BME280;59793;46.506;6.674;2024-02-23T09:41:21;95481.19;;;7.28;68.08
71917;BME280;59793;46.506;6.674;2024-02-23T09:43:47;95503.34;;;7.68;68.75
71917;BME280;59793;46.506;6.674;2024-02-23T09:46:17;95492.03;;;7.60;67.83
71917;BME280;59793;46.506;6.674;2024-02-23T09:48:43;95535.16;;;8.03;66.20
71917;BME280;59793;46.506;6.674;2024-02-23T09:51:10;95598.00;;;8.33;65.61
71917;BME280;59793;46.506;6.674;2024-02-23T09:53:37;95592.72;;;8.30;67.01
71917;BME280;59793;46.506;6.674;2024-02-23T09:56:03;95516.56;;;8.23;66.30
71917;BME280;59793;46.506;6.674;2024-02-23T09:58:31;95578.56;;;8.86;64.05
71917;BME280;59793;46.506;6.674;2024-02-23T10:00:58;95488.88;;;8.25;65.73
71917;BME280;59793;46.506;6.674;2024-02-23T10:03:28;95581.16;;;8.79;64.90
71917;BME280;59793;46.506;6.674;2024-02-23T10:05:59;95577.19;;;8.51;67.16
71917;BME280;59793;46.506;6.674;2024-02-23T10:08:28;95512.66;;;8.02;66.94
71917;BME280;59793;46.506;6.674;2024-02-23T10:10:54;95562.72;;;8.72;66.37
71917;BME280;59793;46.506;6.674;2024-02-23T10:13:24;95542.81;;;8.67;65.09
71917;BME280;59793;46.506;6.674;2024-02-23T10:16:09;95475.06;;;8.32;66.24
71917;BME280;59793;46.506;6.674;2024-02-23T10:18:39;95469.69;;;8.18;66.12
71917;BME280;59793;46.506;6.674;2024-02-23T10:21:09;95579.28;;;8.83;65.58
71917;BME280;59793;46.506;6.674;2024-02-23T10:23:34;95566.25;;;8.94;66.08
71917;BME280;59793;46.506;6.674;2024-02-23T10:26:05;95510.53;;;8.63;65.88
71917;BME280;59793;46.506;6.674;2024-02-23T10:28:33;95550.38;;;8.76;65.07
71917;BME280;59793;46.506;6.674;2024-02-23T10:31:02;95513.22;;;8.70;66.08
71917;BME280;59793;46.506;6.674;2024-02-23T10:33:28;95509.63;;;9.03;64.67
71917;BME280;59793;46.506;6.674;2024-02-23T10:35:56;95514.16;;;9.06;64.35
71917;BME280;59793;46.506;6.674;2024-02-23T10:38:32;95535.72;;;9.44;64.26
71917;BME280;59793;46.506;6.674;2024-02-23T10:41:02;95575.22;;;9.62;64.41
71917;BME280;59793;46.506;6.674;2024-02-23T10:43:44;95552.25;;;9.41;63.70
71917;BME280;59793;46.506;6.674;2024-02-23T10:46:12;95566.56;;;9.54;63.33
71917;BME280;59793;46.506;6.674;2024-02-23T10:48:41;95524.16;;;9.70;62.83
71917;BME280;59793;46.506;6.674;2024-02-23T10:51:07;95503.91;;;9.85;60.48
71917;BME280;59793;46.506;6.674;2024-02-23T10:53:35;95562.25;;;10.26;60.17
71917;BME280;59793;46.506;6.674;2024-02-23T10:56:03;95476.13;;;10.05;58.75
71917;BME280;59793;46.506;6.674;2024-02-23T10:58:30;95551.69;;;11.09;57.85
71917;BME280;59793;46.506;6.674;2024-02-23T11:01:00;95514.03;;;11.12;57.15
71917;BME280;59793;46.506;6.674;2024-02-23T11:03:30;95530.53;;;11.30;56.42
71917;BME280;59793;46.506;6.674;2024-02-23T11:05:56;95481.00;;;10.71;56.02
71917;BME280;59793;46.506;6.674;2024-02-23T11:08:22;95477.56;;;10.99;57.64
71917;BME280;59793;46.506;6.674;2024-02-23T11:10:51;95463.25;;;11.00;56.18
71917;BME280;59793;46.506;6.674;2024-02-23T11:13:31;95446.53;;;11.36;55.64
71917;BME280;59793;46.506;6.674;2024-02-23T11:16:07;95473.00;;;11.91;53.13
71917;BME280;59793;46.506;6.674;2024-02-23T11:18:35;95541.56;;;11.99;54.08
71917;BME280;59793;46.506;6.674;2024-02-23T11:21:10;95473.94;;;11.53;54.12
71917;BME280;59793;46.506;6.674;2024-02-23T11:23:43;95529.53;;;11.90;54.31
71917;BME280;59793;46.506;6.674;2024-02-23T11:26:10;95531.81;;;11.88;54.89
71917;BME280;59793;46.506;6.674;2024-02-23T11:28:43;95467.81;;;11.73;53.16
71917;BME280;59793;46.506;6.674;2024-02-23T11:31:14;95427.94;;;11.61;52.05
71917;BME280;59793;46.506;6.674;2024-02-23T11:33:47;95428.88;;;11.22;53.44
71917;BME280;59793;46.506;6.674;2024-02-23T11:36:12;95473.38;;;11.06;54.10
71917;BME280;59793;46.506;6.674;2024-02-23T11:38:47;95521.19;;;11.15;54.14
71917;BME280;59793;46.506;6.674;2024-02-23T11:41:13;95509.44;;;11.34;56.71
71917;BME280;59793;46.506;6.674;2024-02-23T11:43:41;95474.13;;;11.83;57.43
71917;BME280;59793;46.506;6.674;2024-02-23T11:46:08;95459.22;;;12.18;52.45
71917;BME280;59793;46.506;6.674;2024-02-23T11:48:37;95472.31;;;12.74;54.10
71917;BME280;59793;46.506;6.674;2024-02-23T11:51:04;95484.19;;;13.30;51.56
71917;BME280;59793;46.506;6.674;2024-02-23T11:53:29;95501.59;;;13.58;49.98
71917;BME280;59793;46.506;6.674;2024-02-23T11:55:55;95478.59;;;13.55;48.43
71917;BME280;59793;46.506;6.674;2024-02-23T11:58:20;95492.31;;;13.47;50.33
71917;BME280;59793;46.506;6.674;2024-02-23T12:00:50;95489.72;;;13.05;48.91
71917;BME280;59793;46.506;6.674;2024-02-23T12:03:28;95494.94;;;12.75;50.74
71917;BME280;59793;46.506;6.674;2024-02-23T12:05:53;95485.25;;;12.61;49.26
71917;BME280;59793;46.506;6.674;2024-02-23T12:08:21;95478.91;;;12.10;50.49
71917;BME280;59793;46.506;6.674;2024-02-23T12:10:47;95478.31;;;11.81;50.29
71917;BME280;59793;46.506;6.674;2024-02-23T12:13:12;95484.00;;;11.72;50.97
71917;BME280;59793;46.506;6.674;2024-02-23T12:15:38;95470.03;;;11.79;51.65
71917;BME280;59793;46.506;6.674;2024-02-23T12:18:04;95450.78;;;11.85;50.47
71917;BME280;59793;46.506;6.674;2024-02-23T12:20:33;95456.44;;;11.87;50.44
71917;BME280;59793;46.506;6.674;2024-02-23T12:23:00;95466.69;;;11.71;49.00
71917;BME280;59793;46.506;6.674;2024-02-23T12:25:26;95456.00;;;11.96;50.74
71917;BME280;59793;46.506;6.674;2024-02-23T12:27:55;95465.44;;;11.90;49.65
71917;BME280;59793;46.506;6.674;2024-02-23T12:30:22;95454.16;;;11.82;48.01
71917;BME280;59793;46.506;6.674;2024-02-23T12:32:47;95447.38;;;11.88;48.24
71917;BME280;59793;46.506;6.674;2024-02-23T12:35:14;95418.47;;;12.19;49.50
71917;BME280;59793;46.506;6.674;2024-02-23T12:37:40;95448.38;;;12.50;45.45
71917;BME280;59793;46.506;6.674;2024-02-23T12:40:07;95435.09;;;12.16;46.82
71917;BME280;59793;46.506;6.674;2024-02-23T12:42:32;95433.06;;;12.34;47.78
71917;BME280;59793;46.506;6.674;2024-02-23T12:44:57;95448.91;;;12.34;49.13
71917;BME280;59793;46.506;6.674;2024-02-23T12:47:23;95434.03;;;12.51;49.16
71917;BME280;59793;46.506;6.674;2024-02-23T12:49:51;95442.91;;;12.68;50.22
71917;BME280;59793;46.506;6.674;2024-02-23T12:52:16;95440.88;;;12.83;49.64
71917;BME280;59793;46.506;6.674;2024-02-23T12:54:41;95440.25;;;12.68;50.63
71917;BME280;59793;46.506;6.674;2024-02-23T12:57:07;95434.16;;;12.40;51.34
71917;BME280;59793;46.506;6.674;2024-02-23T12:59:32;95443.25;;;12.32;51.82
71917;BME280;59793;46.506;6.674;2024-02-23T13:01:59;95419.94;;;12.61;50.19
71917;BME280;59793;46.506;6.674;2024-02-23T13:04:24;95425.91;;;13.03;48.08
71917;BME280;59793;46.506;6.674;2024-02-23T13:06:51;95419.06;;;13.09;48.63